Time;durP1;ratioP1;P1;durP2;ratioP2;P2;SDS_P1;SDS_P2;PMS_P1;PMS_P2;Temp;Humidity;BMP_temperature;BMP_pressure;BME280_temperature;BME280_humidity;BME280_pressure;Samples;Min_cycle;Max_cycle;Signal;HPM_P1;HPM_P2
2022/11/30 00:00:36;;;;;;;97.53;46.78;;;10.60;99.90;;;;;;2077330;28;20165;-72
2022/11/30 00:01:37;;;;;;;91.22;48.58;;;10.60;99.90;;;;;;2078099;28;20033;-72
2022/11/30 00:02:38;;;;;;;82.15;42.22;;;10.60;99.90;;;;;;2075288;28;20026;-72
2022/11/30 00:03:39;;;;;;;94.18;45.90;;;10.60;99.90;;;;;;2078123;28;20056;-72
2022/11/30 00:04:40;;;;;;;105.50;50.53;;;10.70;99.90;;;;;;2076243;28;20025;-72
2022/11/30 00:05:40;;;;;;;80.85;43.67;;;10.60;99.90;;;;;;2066626;28;20022;-72
2022/11/30 00:06:41;;;;;;;103.60;49.38;;;10.70;99.90;;;;;;2078171;28;20051;-72
2022/11/30 00:07:42;;;;;;;98.40;50.03;;;10.70;99.90;;;;;;2076415;28;20033;-72
2022/11/30 00:08:42;;;;;;;103.75;51.60;;;10.70;99.90;;;;;;2076395;28;20030;-72
2022/11/30 00:09:43;;;;;;;101.68;51.80;;;10.70;99.90;;;;;;2076128;28;20028;-72
2022/11/30 00:10:44;;;;;;;99.28;49.13;;;10.70;99.90;;;;;;2075596;28;20029;-72
2022/11/30 00:11:44;;;;;;;95.55;50.65;;;10.70;99.90;;;;;;2077900;28;20018;-72
2022/11/30 00:12:45;;;;;;;103.43;51.13;;;10.70;99.90;;;;;;2078096;28;20096;-72
2022/11/30 00:13:46;;;;;;;94.97;47.70;;;10.60;99.90;;;;;;2078046;28;20025;-72
2022/11/30 00:14:47;;;;;;;106.07;54.05;;;10.60;99.90;;;;;;2085307;28;20550;-72
2022/11/30 00:15:47;;;;;;;101.97;51.08;;;10.60;99.90;;;;;;2086072;28;20470;-72
2022/11/30 00:16:48;;;;;;;99.82;51.25;;;10.60;99.90;;;;;;2076084;28;20025;-72
2022/11/30 00:17:49;;;;;;;96.88;46.40;;;10.60;99.90;;;;;;2076788;28;20026;-72
2022/11/30 00:18:50;;;;;;;96.68;49.33;;;10.60;99.90;;;;;;2076166;28;20030;-72
2022/11/30 00:19:50;;;;;;;103.60;49.70;;;10.60;99.90;;;;;;2078278;28;20501;-72
2022/11/30 00:20:51;;;;;;;98.20;49.50;;;10.60;99.90;;;;;;2076352;28;20484;-72
2022/11/30 00:21:51;;;;;;;73.30;40.17;;;10.60;99.90;;;;;;2074486;28;20035;-72
2022/11/30 00:22:54;;;;;;;96.85;50.88;;;10.60;99.90;;;;;;2077121;28;20021;-72
2022/11/30 00:23:54;;;;;;;91.90;48.92;;;10.60;99.90;;;;;;2078020;28;20116;-72
2022/11/30 00:24:58;;;;;;;99.70;51.60;;;10.60;99.90;;;;;;2077706;28;20026;-72
2022/11/30 00:26:03;;;;;;;86.53;48.97;;;10.60;99.90;;;;;;2077900;28;20021;-72
2022/11/30 00:27:04;;;;;;;91.53;48.53;;;10.70;99.90;;;;;;2075054;28;20017;-72
2022/11/30 00:28:04;;;;;;;85.47;46.40;;;10.60;99.90;;;;;;2077295;28;20022;-72
2022/11/30 00:29:05;;;;;;;87.40;47.78;;;10.60;99.90;;;;;;2077601;28;20032;-72
2022/11/30 00:30:06;;;;;;;89.43;47.58;;;10.60;99.90;;;;;;2077998;28;20109;-72
2022/11/30 00:31:10;;;;;;;78.03;45.75;;;10.60;99.90;;;;;;2078100;28;20025;-72
2022/11/30 00:32:10;;;;;;;77.60;44.33;;;10.60;99.90;;;;;;2077938;28;20033;-72
2022/11/30 00:33:11;;;;;;;78.55;44.00;;;10.60;99.90;;;;;;2077668;28;20473;-72
2022/11/30 00:34:11;;;;;;;73.55;42.63;;;10.60;99.90;;;;;;2073988;28;20029;-72
2022/11/30 00:35:16;;;;;;;70.55;42.25;;;10.60;99.90;;;;;;2069906;28;20848;-72
2022/11/30 00:36:20;;;;;;;72.68;41.97;;;10.60;99.90;;;;;;2077875;28;20018;-72
2022/11/30 00:37:21;;;;;;;70.10;40.15;;;10.60;99.90;;;;;;2077528;28;20068;-72
2022/11/30 00:38:22;;;;;;;63.50;39.50;;;10.60;99.90;;;;;;2077285;28;20072;-72
2022/11/30 00:39:22;;;;;;;63.50;39.28;;;10.60;99.90;;;;;;2078024;28;20032;-72
2022/11/30 00:40:23;;;;;;;64.80;39.72;;;10.70;99.90;;;;;;2078905;28;20476;-72
2022/11/30 00:41:23;;;;;;;70.82;41.28;;;10.60;99.90;;;;;;2077697;28;20076;-72
2022/11/30 00:42:24;;;;;;;74.43;42.53;;;10.70;99.90;;;;;;2078220;28;20083;-72
2022/11/30 00:43:25;;;;;;;65.15;38.63;;;10.70;99.90;;;;;;2078451;28;20855;-72
2022/11/30 00:44:25;;;;;;;60.60;36.30;;;10.70;99.90;;;;;;2078372;28;20033;-72
2022/11/30 00:45:26;;;;;;;58.10;36.30;;;10.70;99.90;;;;;;2082010;28;20584;-72
2022/11/30 00:46:26;;;;;;;65.43;38.42;;;10.70;99.90;;;;;;2082062;28;20033;-72
2022/11/30 00:47:27;;;;;;;56.05;34.17;;;10.70;99.90;;;;;;2083526;28;20112;-72
2022/11/30 00:48:27;;;;;;;61.42;36.83;;;10.70;99.90;;;;;;2086740;28;20048;-72
2022/11/30 00:49:28;;;;;;;52.88;34.35;;;10.70;99.90;;;;;;2075963;28;20025;-72
2022/11/30 00:50:28;;;;;;;58.30;37.08;;;10.70;99.90;;;;;;2076539;28;20121;-72
2022/11/30 00:51:29;;;;;;;60.75;35.50;;;10.70;99.90;;;;;;2075077;28;20535;-72
2022/11/30 00:52:29;;;;;;;59.28;37.50;;;10.70;99.90;;;;;;2077157;28;20033;-72
2022/11/30 00:53:30;;;;;;;51.80;34.22;;;10.70;99.90;;;;;;2078410;28;20016;-72
2022/11/30 00:54:30;;;;;;;56.95;35.55;;;10.70;99.90;;;;;;2077463;28;20022;-72
2022/11/30 00:55:32;;;;;;;52.75;33.55;;;10.70;99.90;;;;;;2076724;28;20613;-72
2022/11/30 00:56:32;;;;;;;55.08;35.53;;;10.70;99.90;;;;;;2075868;28;20087;-72
2022/11/30 00:57:33;;;;;;;53.28;37.05;;;10.70;99.90;;;;;;2075530;28;20061;-72
2022/11/30 00:58:33;;;;;;;57.20;38.05;;;10.80;99.90;;;;;;2075033;28;20026;-72
2022/11/30 00:59:34;;;;;;;50.75;32.97;;;10.80;99.90;;;;;;2077757;28;20806;-72
2022/11/30 01:00:34;;;;;;;57.08;35.00;;;10.80;99.90;;;;;;2076034;28;20041;-72
2022/11/30 01:01:35;;;;;;;53.72;33.28;;;10.70;99.90;;;;;;2077671;28;20030;-72
2022/11/30 01:02:36;;;;;;;58.05;35.35;;;10.80;99.90;;;;;;2076844;28;20501;-72
2022/11/30 01:03:37;;;;;;;54.08;35.28;;;10.80;99.90;;;;;;2075787;28;20029;-72
2022/11/30 01:04:37;;;;;;;55.08;36.08;;;10.80;99.90;;;;;;2077014;28;20024;-72
2022/11/30 01:05:38;;;;;;;49.22;32.05;;;10.80;99.90;;;;;;2075617;28;20063;-72
2022/11/30 01:06:39;;;;;;;53.25;32.53;;;10.80;99.90;;;;;;2078700;28;20081;-72
2022/11/30 01:07:39;;;;;;;50.78;33.95;;;10.80;99.90;;;;;;2076614;28;20650;-72
2022/11/30 01:08:40;;;;;;;47.53;31.98;;;10.80;99.90;;;;;;2078593;28;20075;-72
2022/11/30 01:09:40;;;;;;;48.63;30.15;;;10.80;99.90;;;;;;2077915;28;20167;-72
2022/11/30 01:10:43;;;;;;;49.60;33.15;;;10.80;99.90;;;;;;2076294;28;20029;-72
2022/11/30 01:11:43;;;;;;;55.70;33.83;;;10.80;99.90;;;;;;2077526;28;20035;-72
2022/11/30 01:12:44;;;;;;;49.90;33.20;;;10.80;99.90;;;;;;2084769;28;20025;-72
2022/11/30 01:13:44;;;;;;;52.40;33.20;;;10.80;99.90;;;;;;2085562;28;20079;-72
2022/11/30 01:14:45;;;;;;;56.15;36.55;;;10.80;99.90;;;;;;2077107;28;20033;-72
2022/11/30 01:15:45;;;;;;;56.30;35.10;;;10.80;99.90;;;;;;2077635;28;20025;-72
2022/11/30 01:16:46;;;;;;;51.58;32.72;;;10.80;99.90;;;;;;2078767;28;20029;-72
2022/11/30 01:17:47;;;;;;;49.80;32.60;;;10.80;99.90;;;;;;2078480;28;20017;-72
2022/11/30 01:18:48;;;;;;;53.97;33.88;;;10.80;99.90;;;;;;2075969;28;20052;-72
2022/11/30 01:19:49;;;;;;;55.50;35.08;;;10.80;99.90;;;;;;2076702;28;20583;-72
2022/11/30 01:20:49;;;;;;;52.67;33.97;;;10.80;99.90;;;;;;2084128;28;20637;-72
2022/11/30 01:21:50;;;;;;;49.53;31.95;;;10.80;99.90;;;;;;2082898;28;20086;-72
2022/11/30 01:22:51;;;;;;;51.85;34.00;;;10.80;99.90;;;;;;2082758;28;20044;-72
2022/11/30 01:23:51;;;;;;;50.72;31.33;;;10.80;99.90;;;;;;2077044;28;20504;-72
2022/11/30 01:24:52;;;;;;;49.13;29.48;;;10.80;99.90;;;;;;2077469;28;20026;-72
2022/11/30 01:25:54;;;;;;;47.92;32.15;;;10.80;99.90;;;;;;2078293;28;20033;-72
2022/11/30 01:26:54;;;;;;;52.17;33.38;;;10.80;99.90;;;;;;2077816;28;20521;-72
2022/11/30 01:27:55;;;;;;;44.10;30.83;;;10.80;99.90;;;;;;2076110;28;20581;-72
2022/11/30 01:28:55;;;;;;;52.33;34.72;;;10.80;99.90;;;;;;2077098;28;20135;-72
2022/11/30 01:29:56;;;;;;;48.63;32.15;;;10.80;99.90;;;;;;2076171;28;20112;-72
2022/11/30 01:30:58;;;;;;;56.03;34.90;;;10.80;99.90;;;;;;2076866;28;20109;-72
2022/11/30 01:31:59;;;;;;;51.92;34.88;;;10.90;99.90;;;;;;2078111;28;20424;-72
2022/11/30 01:33:04;;;;;;;54.53;34.15;;;10.90;99.90;;;;;;2076143;28;20025;-72
2022/11/30 01:34:05;;;;;;;54.95;35.22;;;10.90;99.90;;;;;;2077348;28;20064;-72
2022/11/30 01:35:05;;;;;;;56.47;35.03;;;10.80;99.90;;;;;;2077539;28;20033;-72
2022/11/30 01:36:17;;;;;;;58.92;35.97;;;10.80;99.90;;;;;;2079198;28;20387;-72
2022/11/30 01:37:18;;;;;;;58.88;34.88;;;10.80;99.90;;;;;;2079205;28;20037;-72
2022/11/30 01:38:18;;;;;;;52.90;33.53;;;10.80;99.90;;;;;;2078327;28;20394;-72
2022/11/30 01:39:19;;;;;;;52.90;33.22;;;10.80;99.90;;;;;;2076612;28;20022;-72
2022/11/30 01:40:19;;;;;;;52.28;31.05;;;10.80;99.90;;;;;;2077272;28;20030;-72
2022/11/30 01:41:26;;;;;;;46.25;30.67;;;10.80;99.90;;;;;;2077316;28;20481;-72
2022/11/30 01:42:27;;;;;;;46.50;29.80;;;10.80;99.90;;;;;;2075368;28;20501;-72
2022/11/30 01:43:51;;;;;;;39.03;28.45;;;10.70;99.90;;;;;;2077044;28;20943;-72
2022/11/30 01:44:59;;;;;;;37.85;27.30;;;10.70;99.90;;;;;;2078098;28;20037;-72
2022/11/30 01:46:00;;;;;;;40.30;27.60;;;10.60;99.90;;;;;;2077235;28;20653;-72
2022/11/30 01:47:06;;;;;;;41.97;29.55;;;10.60;99.90;;;;;;2076754;28;20029;-72
2022/11/30 01:48:07;;;;;;;45.75;30.52;;;10.60;99.90;;;;;;2077608;28;20029;-72
2022/11/30 01:49:08;;;;;;;43.47;30.38;;;10.60;99.90;;;;;;2077965;28;20040;-72
2022/11/30 01:50:17;;;;;;;59.30;33.95;;;10.60;99.90;;;;;;2077956;28;20037;-72
2022/11/30 01:51:18;;;;;;;72.18;41.92;;;10.60;99.90;;;;;;2077144;28;20133;-72
2022/11/30 01:52:24;;;;;;;70.53;41.78;;;10.60;99.90;;;;;;2077114;28;20036;-72
2022/11/30 01:53:24;;;;;;;70.18;39.42;;;10.50;99.90;;;;;;2076170;28;20025;-72
2022/11/30 01:54:37;;;;;;;44.38;32.40;;;10.50;99.90;;;;;;2076554;28;20112;-72
2022/11/30 01:55:45;;;;;;;44.15;30.02;;;10.40;99.90;;;;;;2076231;28;20026;-72
2022/11/30 01:56:54;;;;;;;38.85;27.75;;;10.40;99.90;;;;;;2077078;28;20022;-72
2022/11/30 01:58:11;;;;;;;37.97;28.73;;;10.40;99.90;;;;;;2077270;28;20025;-72
2022/11/30 01:59:13;;;;;;;39.40;27.77;;;10.40;99.90;;;;;;2077234;28;20524;-72
2022/11/30 02:00:15;;;;;;;36.60;27.98;;;10.30;99.90;;;;;;2077388;28;20053;-72
2022/11/30 02:01:15;;;;;;;39.90;29.40;;;10.40;99.90;;;;;;2077908;28;20060;-72
2022/11/30 02:02:21;;;;;;;40.70;30.25;;;10.30;99.90;;;;;;2077039;28;20525;-72
2022/11/30 02:03:42;;;;;;;39.10;29.90;;;10.30;99.90;;;;;;2076999;28;20028;-72
2022/11/30 02:04:43;;;;;;;40.55;28.90;;;10.30;99.90;;;;;;2077566;28;20485;-72
2022/11/30 02:05:44;;;;;;;43.42;31.17;;;10.30;99.90;;;;;;2077736;28;20084;-72
2022/11/30 02:06:47;;;;;;;41.50;31.10;;;10.30;99.90;;;;;;2075827;28;20021;-72
2022/11/30 02:07:47;;;;;;;44.30;31.65;;;10.30;99.90;;;;;;2074867;28;20014;-72
2022/11/30 02:08:48;;;;;;;45.88;34.10;;;10.30;99.90;;;;;;2077508;28;20057;-71
2022/11/30 02:09:48;;;;;;;43.63;31.02;;;10.30;99.90;;;;;;2076583;28;20030;-72
2022/11/30 02:10:53;;;;;;;47.35;33.72;;;10.20;99.90;;;;;;2075496;28;20485;-72
2022/11/30 02:11:53;;;;;;;47.17;33.53;;;10.20;99.90;;;;;;2077417;28;20046;-72
2022/11/30 02:13:13;;;;;;;45.08;33.92;;;10.20;99.90;;;;;;2083249;28;20025;-72
2022/11/30 02:14:33;;;;;;;43.90;33.88;;;10.20;99.90;;;;;;2082815;28;20078;-72
2022/11/30 02:16:07;;;;;;;49.95;35.80;;;10.20;99.90;;;;;;2075826;28;20025;-71
2022/11/30 02:17:36;;;;;;;41.75;30.05;;;10.10;99.90;;;;;;2075991;28;20033;-72
2022/11/30 02:19:02;;;;;;;41.40;30.98;;;10.10;99.90;;;;;;2076842;28;20434;-71
2022/11/30 02:20:15;;;;;;;48.10;34.13;;;10.10;99.90;;;;;;2077487;28;20033;-72
2022/11/30 02:21:27;;;;;;;41.72;31.75;;;10.10;99.90;;;;;;2074591;28;20073;-71
2022/11/30 02:22:36;;;;;;;44.42;32.10;;;10.10;99.90;;;;;;2076386;28;20033;-72
2022/11/30 02:23:42;;;;;;;45.58;32.63;;;10.10;99.90;;;;;;2075586;28;20030;-72
2022/11/30 02:24:42;;;;;;;46.13;34.92;;;10.10;99.90;;;;;;2076383;28;20132;-72
2022/11/30 02:26:07;;;;;;;47.22;34.67;;;10.10;99.90;;;;;;2077253;28;20485;-72
2022/11/30 02:27:20;;;;;;;46.92;35.60;;;10.10;99.90;;;;;;2077389;28;20029;-72
2022/11/30 02:28:36;;;;;;;54.05;36.45;;;10.10;99.90;;;;;;2074090;28;20383;-72
2022/11/30 02:29:53;;;;;;;44.85;33.95;;;10.10;99.90;;;;;;2075481;28;20029;-71
2022/11/30 02:30:55;;;;;;;49.60;35.47;;;10.00;99.90;;;;;;2070393;28;20041;-72
2022/11/30 02:32:18;;;;;;;45.03;34.95;;;10.10;99.90;;;;;;2073736;28;20149;-72
2022/11/30 02:33:24;;;;;;;45.92;34.60;;;10.00;99.90;;;;;;2076059;28;20029;-72
2022/11/30 02:34:29;;;;;;;50.58;36.30;;;10.00;99.90;;;;;;2077460;28;20021;-71
2022/11/30 02:35:35;;;;;;;48.83;36.38;;;10.00;99.90;;;;;;2075127;28;20741;-71
2022/11/30 02:36:36;;;;;;;41.53;32.42;;;10.00;99.90;;;;;;2076406;28;20115;-72
2022/11/30 02:37:38;;;;;;;50.00;34.75;;;10.00;99.90;;;;;;2077103;28;20025;-72
2022/11/30 02:38:39;;;;;;;46.65;34.67;;;10.00;99.90;;;;;;2076196;28;20462;-72
2022/11/30 02:39:41;;;;;;;46.85;35.40;;;10.00;99.90;;;;;;2077600;28;20068;-72
2022/11/30 02:40:42;;;;;;;44.80;35.75;;;9.90;99.90;;;;;;2076345;28;20156;-72
2022/11/30 02:41:42;;;;;;;45.95;34.33;;;9.90;99.90;;;;;;2076541;28;20029;-72
2022/11/30 02:42:43;;;;;;;45.83;35.97;;;9.90;99.90;;;;;;2076076;28;20033;-72
2022/11/30 02:43:44;;;;;;;46.90;35.17;;;9.90;99.90;;;;;;2075494;28;20679;-72
2022/11/30 02:44:48;;;;;;;53.65;35.85;;;9.90;99.90;;;;;;2078089;28;20033;-71
2022/11/30 02:46:01;;;;;;;51.78;35.15;;;9.90;99.90;;;;;;2074615;28;20034;-72
2022/11/30 02:47:22;;;;;;;46.60;34.80;;;9.90;99.90;;;;;;2074439;28;20116;-72
2022/11/30 02:48:55;;;;;;;46.53;33.17;;;9.90;99.90;;;;;;2076636;28;20072;-72
2022/11/30 02:50:06;;;;;;;46.63;35.45;;;9.90;99.90;;;;;;2076830;28;20030;-72
2022/11/30 02:51:09;;;;;;;45.55;34.30;;;9.90;99.90;;;;;;2074709;28;20416;-72
2022/11/30 02:52:11;;;;;;;47.08;35.90;;;9.90;99.90;;;;;;2075634;28;20017;-72
2022/11/30 02:53:12;;;;;;;45.35;34.75;;;9.90;99.90;;;;;;2077460;28;20021;-71
2022/11/30 02:54:12;;;;;;;46.55;35.35;;;9.90;99.90;;;;;;2084629;28;20146;-71
2022/11/30 02:55:16;;;;;;;41.33;31.80;;;9.90;99.90;;;;;;2077780;28;20067;-72
2022/11/30 02:56:18;;;;;;;44.75;35.72;;;9.90;99.90;;;;;;2078849;28;20781;-72
2022/11/30 02:57:19;;;;;;;46.78;35.40;;;9.90;99.90;;;;;;2077322;28;20061;-71
2022/11/30 02:58:20;;;;;;;38.38;30.67;;;9.90;99.90;;;;;;2078919;28;20032;-72
2022/11/30 02:59:21;;;;;;;42.50;33.42;;;9.90;99.90;;;;;;2078865;28;20067;-71
2022/11/30 03:00:21;;;;;;;43.67;34.90;;;9.90;99.90;;;;;;2078615;28;20075;-72
2022/11/30 03:01:22;;;;;;;44.00;34.88;;;9.90;99.90;;;;;;2078035;28;20492;-71
2022/11/30 03:02:23;;;;;;;41.28;33.00;;;9.90;99.90;;;;;;2075394;28;20478;-72
2022/11/30 03:03:24;;;;;;;47.38;34.95;;;9.90;99.90;;;;;;2075330;28;20021;-72
2022/11/30 03:04:24;;;;;;;46.70;36.10;;;9.90;99.90;;;;;;2078879;28;20486;-72
2022/11/30 03:05:25;;;;;;;47.40;35.88;;;9.90;99.90;;;;;;2076310;28;20586;-72
2022/11/30 03:06:25;;;;;;;47.50;35.40;;;9.90;99.90;;;;;;2078633;28;20078;-72
2022/11/30 03:07:26;;;;;;;47.22;35.63;;;9.90;99.90;;;;;;2077430;28;20025;-71
2022/11/30 03:08:26;;;;;;;46.25;35.47;;;9.90;99.90;;;;;;2077499;28;20030;-72
2022/11/30 03:09:27;;;;;;;51.15;37.03;;;9.90;99.90;;;;;;2077790;28;20079;-72
2022/11/30 03:10:27;;;;;;;45.50;32.92;;;9.90;99.90;;;;;;2078481;28;20029;-72
2022/11/30 03:11:28;;;;;;;45.47;34.83;;;9.80;99.90;;;;;;2077331;28;20029;-72
2022/11/30 03:12:28;;;;;;;49.28;36.80;;;9.80;99.90;;;;;;2078492;28;20034;-72
2022/11/30 03:13:30;;;;;;;50.78;36.10;;;9.80;99.90;;;;;;2079302;28;20477;-72
2022/11/30 03:14:31;;;;;;;48.47;36.50;;;9.80;99.90;;;;;;2079107;28;20034;-72
2022/11/30 03:15:31;;;;;;;50.70;36.28;;;9.80;99.90;;;;;;2080055;28;20036;-72
2022/11/30 03:16:32;;;;;;;48.50;37.25;;;9.80;99.90;;;;;;2077114;28;20490;-72
2022/11/30 03:17:33;;;;;;;46.75;36.08;;;9.80;99.90;;;;;;2079582;28;20056;-72
2022/11/30 03:18:34;;;;;;;48.58;37.03;;;9.80;99.90;;;;;;2075075;28;20071;-72
2022/11/30 03:19:34;;;;;;;48.35;36.13;;;9.80;99.90;;;;;;2075177;28;20045;-72
2022/11/30 03:20:41;;;;;;;45.78;36.00;;;9.80;99.90;;;;;;2077303;28;20040;-72
2022/11/30 03:21:41;;;;;;;48.35;36.50;;;9.70;99.90;;;;;;2077045;28;20076;-72
2022/11/30 03:22:42;;;;;;;45.50;35.42;;;9.70;99.90;;;;;;2077990;28;20056;-72
2022/11/30 03:23:42;;;;;;;42.05;33.58;;;9.70;99.90;;;;;;2070634;28;20393;-72
2022/11/30 03:24:43;;;;;;;45.40;34.38;;;9.70;99.90;;;;;;2078494;28;20026;-72
2022/11/30 03:25:43;;;;;;;39.85;32.15;;;9.70;99.90;;;;;;2077096;28;20033;-72
2022/11/30 03:26:44;;;;;;;46.75;34.80;;;9.70;99.90;;;;;;2076768;28;20018;-72
2022/11/30 03:27:45;;;;;;;47.47;35.00;;;9.70;99.90;;;;;;2078184;28;20029;-72
2022/11/30 03:28:45;;;;;;;43.80;33.65;;;9.70;99.90;;;;;;2079531;28;20030;-72
2022/11/30 03:29:46;;;;;;;42.78;33.67;;;9.70;99.90;;;;;;2078727;28;20769;-72
2022/11/30 03:30:49;;;;;;;44.80;36.10;;;9.70;99.90;;;;;;2086356;28;20141;-71
2022/11/30 03:31:49;;;;;;;46.00;34.55;;;9.60;99.90;;;;;;2084569;28;20037;-72
2022/11/30 03:32:50;;;;;;;45.25;36.50;;;9.60;99.90;;;;;;2078889;28;20029;-72
2022/11/30 03:33:51;;;;;;;44.60;35.20;;;9.60;99.90;;;;;;2069502;28;20026;-72
2022/11/30 03:34:52;;;;;;;43.85;33.20;;;9.60;99.90;;;;;;2067858;28;20029;-72
2022/11/30 03:36:04;;;;;;;42.50;34.30;;;9.60;99.90;;;;;;2075305;28;20025;-72
2022/11/30 03:37:04;;;;;;;44.00;34.95;;;9.60;99.90;;;;;;2078429;28;20508;-72
2022/11/30 03:38:05;;;;;;;38.58;31.98;;;9.60;99.90;;;;;;2077456;28;20430;-72
2022/11/30 03:39:05;;;;;;;44.10;33.78;;;9.60;99.90;;;;;;2085617;28;20064;-71
2022/11/30 03:40:07;;;;;;;41.83;33.47;;;9.60;99.90;;;;;;2083710;28;20052;-71
2022/11/30 03:41:12;;;;;;;41.38;33.50;;;9.60;99.90;;;;;;2077130;28;20034;-72
2022/11/30 03:42:13;;;;;;;45.28;34.55;;;9.60;99.90;;;;;;2077999;28;20041;-72
2022/11/30 03:43:13;;;;;;;44.88;33.92;;;9.60;99.90;;;;;;2077591;28;20466;-71
2022/11/30 03:44:14;;;;;;;40.15;33.58;;;9.60;99.90;;;;;;2077360;28;20112;-72
2022/11/30 03:45:15;;;;;;;42.15;35.10;;;9.60;99.90;;;;;;2078876;28;20080;-71
2022/11/30 03:46:16;;;;;;;44.97;36.03;;;9.60;99.90;;;;;;2077524;28;20017;-72
2022/11/30 03:47:16;;;;;;;43.92;36.03;;;9.60;99.90;;;;;;2078329;28;20026;-72
2022/11/30 03:48:17;;;;;;;42.53;35.25;;;9.60;99.90;;;;;;2078847;28;20025;-71
2022/11/30 03:49:17;;;;;;;42.53;35.38;;;9.60;99.90;;;;;;2079112;28;20040;-72
2022/11/30 03:50:18;;;;;;;40.33;33.97;;;9.60;99.90;;;;;;2076258;28;20038;-72
2022/11/30 03:51:18;;;;;;;40.25;33.15;;;9.50;99.90;;;;;;2077241;28;20658;-72
2022/11/30 03:52:19;;;;;;;41.90;33.95;;;9.50;99.90;;;;;;2076593;28;20021;-71
2022/11/30 03:53:21;;;;;;;41.60;33.75;;;9.50;99.90;;;;;;2078084;28;20025;-72
2022/11/30 03:54:22;;;;;;;46.20;34.42;;;9.50;99.90;;;;;;2076330;28;20037;-71
2022/11/30 03:55:22;;;;;;;43.45;34.00;;;9.50;99.90;;;;;;2076018;28;20040;-71
2022/11/30 03:56:23;;;;;;;46.30;33.47;;;9.50;99.90;;;;;;2077500;28;20101;-71
2022/11/30 03:57:24;;;;;;;42.78;33.55;;;9.50;99.90;;;;;;2078125;28;20029;-72
2022/11/30 03:58:25;;;;;;;44.03;35.95;;;9.50;99.90;;;;;;2077721;28;20078;-72
2022/11/30 03:59:26;;;;;;;46.38;36.33;;;9.50;99.90;;;;;;2076928;28;20795;-71
2022/11/30 04:00:26;;;;;;;45.05;35.08;;;9.50;99.90;;;;;;2078115;28;20484;-72
2022/11/30 04:01:27;;;;;;;43.58;32.92;;;9.50;99.90;;;;;;2078340;28;20097;-71
2022/11/30 04:02:27;;;;;;;47.45;35.20;;;9.50;99.90;;;;;;2078089;28;20025;-72
2022/11/30 04:03:28;;;;;;;42.88;33.92;;;9.50;99.90;;;;;;2077288;28;20028;-72
2022/11/30 04:04:29;;;;;;;46.03;35.35;;;9.50;99.90;;;;;;2076647;28;20029;-72
2022/11/30 04:05:30;;;;;;;42.65;34.58;;;9.50;99.90;;;;;;2076716;28;20037;-72
2022/11/30 04:06:30;;;;;;;39.75;32.97;;;9.50;99.90;;;;;;2076407;28;20061;-72
2022/11/30 04:07:31;;;;;;;41.55;32.80;;;9.50;99.90;;;;;;2078414;28;20021;-72
2022/11/30 04:08:32;;;;;;;46.13;34.63;;;9.50;99.90;;;;;;2078495;28;20100;-72
2022/11/30 04:09:32;;;;;;;41.80;33.83;;;9.50;99.90;;;;;;2076933;28;20029;-72
2022/11/30 04:10:33;;;;;;;39.30;32.88;;;9.40;99.90;;;;;;2077974;28;20068;-72
2022/11/30 04:11:34;;;;;;;42.35;32.55;;;9.40;99.90;;;;;;2077742;28;20026;-71
2022/11/30 04:12:35;;;;;;;40.35;32.15;;;9.40;99.90;;;;;;2078975;28;20021;-72
2022/11/30 04:13:38;;;;;;;37.53;32.75;;;9.40;99.90;;;;;;2078338;28;20052;-72
2022/11/30 04:14:38;;;;;;;39.58;32.92;;;9.40;99.90;;;;;;2076524;28;20026;-71
2022/11/30 04:15:39;;;;;;;36.67;29.20;;;9.40;99.90;;;;;;2076130;28;20509;-72
2022/11/30 04:16:40;;;;;;;41.03;32.45;;;9.40;99.90;;;;;;2076990;28;20033;-72
2022/11/30 04:17:40;;;;;;;40.00;34.15;;;9.40;99.90;;;;;;2076330;28;20523;-71
2022/11/30 04:18:41;;;;;;;43.60;33.60;;;9.40;99.90;;;;;;2077497;28;20033;-71
2022/11/30 04:19:41;;;;;;;43.78;34.13;;;9.40;99.90;;;;;;2076463;28;20406;-72
2022/11/30 04:20:42;;;;;;;42.40;32.03;;;9.40;99.90;;;;;;2075825;28;20045;-72
2022/11/30 04:21:43;;;;;;;38.45;31.50;;;9.40;99.90;;;;;;2077191;28;20026;-72
2022/11/30 04:22:43;;;;;;;43.80;33.80;;;9.40;99.90;;;;;;2076773;28;20048;-72
2022/11/30 04:23:44;;;;;;;38.03;32.42;;;9.40;99.90;;;;;;2075862;28;20124;-72
2022/11/30 04:24:44;;;;;;;40.60;33.13;;;9.40;99.90;;;;;;2076596;28;20052;-71
2022/11/30 04:25:46;;;;;;;42.15;34.10;;;9.40;99.90;;;;;;2077873;28;20025;-72
2022/11/30 04:26:47;;;;;;;35.85;30.83;;;9.40;99.90;;;;;;2078387;28;20079;-72
2022/11/30 04:27:48;;;;;;;37.72;31.45;;;9.40;99.90;;;;;;2077772;28;20051;-72
2022/11/30 04:28:48;;;;;;;38.08;29.80;;;9.40;99.90;;;;;;2079319;28;20036;-72
2022/11/30 04:29:49;;;;;;;37.78;29.92;;;9.40;99.90;;;;;;2077173;28;20420;-72
2022/11/30 04:30:51;;;;;;;36.30;30.42;;;9.40;99.90;;;;;;2076525;28;20029;-72
2022/11/30 04:31:52;;;;;;;33.78;28.60;;;9.40;99.90;;;;;;2078205;28;20021;-72
2022/11/30 04:32:52;;;;;;;36.83;30.67;;;9.50;99.90;;;;;;2076771;28;20516;-72
2022/11/30 04:33:53;;;;;;;39.70;31.38;;;9.50;99.90;;;;;;2077047;28;20022;-72
2022/11/30 04:34:53;;;;;;;37.75;30.55;;;9.50;99.90;;;;;;2076196;28;20052;-72
2022/11/30 04:35:59;;;;;;;34.63;29.77;;;9.50;99.90;;;;;;2074870;28;20021;-71
2022/11/30 04:37:00;;;;;;;34.67;29.40;;;9.50;99.90;;;;;;2077096;28;20033;-72
2022/11/30 04:38:00;;;;;;;37.67;32.00;;;9.50;99.90;;;;;;2078298;28;20131;-72
2022/11/30 04:39:01;;;;;;;37.10;28.85;;;9.50;99.90;;;;;;2075582;28;20033;-72
2022/11/30 04:40:02;;;;;;;36.30;30.10;;;9.50;99.90;;;;;;2074659;28;20107;-72
2022/11/30 04:41:07;;;;;;;35.03;29.17;;;9.50;99.90;;;;;;2075643;28;20055;-72
2022/11/30 04:42:08;;;;;;;33.97;28.00;;;9.50;99.90;;;;;;2076510;28;20040;-72
2022/11/30 04:43:09;;;;;;;30.65;26.10;;;9.50;99.90;;;;;;2076152;28;20687;-71
2022/11/30 04:44:10;;;;;;;36.15;31.08;;;9.50;99.90;;;;;;2075544;28;20083;-72
2022/11/30 04:45:11;;;;;;;35.80;29.65;;;9.50;99.90;;;;;;2081479;28;20025;-73
2022/11/30 04:46:12;;;;;;;31.63;27.05;;;9.50;99.90;;;;;;2082979;28;20060;-72
2022/11/30 04:47:12;;;;;;;33.30;27.83;;;9.50;99.90;;;;;;2077307;28;20037;-71
2022/11/30 04:48:14;;;;;;;33.97;28.55;;;9.50;99.90;;;;;;2085109;28;20029;-72
2022/11/30 04:49:15;;;;;;;30.50;26.98;;;9.50;99.90;;;;;;2084666;28;20456;-72
2022/11/30 04:50:15;;;;;;;28.95;24.50;;;9.40;99.90;;;;;;2074771;28;20025;-72
2022/11/30 04:51:16;;;;;;;30.20;25.40;;;9.40;99.90;;;;;;2075932;28;20029;-72
2022/11/30 04:52:16;;;;;;;29.95;26.27;;;9.40;99.90;;;;;;2078217;28;20024;-72
2022/11/30 04:53:17;;;;;;;32.05;27.48;;;9.50;99.90;;;;;;2077611;28;20026;-72
2022/11/30 04:54:17;;;;;;;30.83;25.63;;;9.40;99.90;;;;;;2075953;28;20029;-72
2022/11/30 04:55:18;;;;;;;29.58;26.20;;;9.40;99.90;;;;;;2076251;28;20030;-72
2022/11/30 04:56:18;;;;;;;27.08;23.63;;;9.40;99.90;;;;;;2077099;28;20485;-72
2022/11/30 04:57:19;;;;;;;30.25;26.42;;;9.40;99.90;;;;;;2077248;28;20057;-72
2022/11/30 04:58:20;;;;;;;31.98;26.10;;;9.50;99.90;;;;;;2077152;28;20623;-72
2022/11/30 04:59:20;;;;;;;32.10;27.42;;;9.50;99.90;;;;;;2078175;28;20640;-72
2022/11/30 05:00:21;;;;;;;33.15;28.15;;;9.50;99.90;;;;;;2074886;28;20080;-72
2022/11/30 05:01:22;;;;;;;31.52;27.20;;;9.50;99.90;;;;;;2077701;28;20061;-72
2022/11/30 05:02:22;;;;;;;32.78;27.33;;;9.50;99.90;;;;;;2075580;28;20049;-72
2022/11/30 05:03:23;;;;;;;29.13;24.77;;;9.50;99.90;;;;;;2075698;28;20517;-72
2022/11/30 05:04:23;;;;;;;28.23;24.58;;;9.50;99.90;;;;;;2078020;28;20025;-72
2022/11/30 05:05:24;;;;;;;28.17;24.23;;;9.50;99.90;;;;;;2083985;28;20059;-72
2022/11/30 05:06:25;;;;;;;30.48;25.50;;;9.50;99.90;;;;;;2082843;28;20025;-72
2022/11/30 05:07:26;;;;;;;28.40;24.90;;;9.50;99.90;;;;;;2077207;28;20901;-72
2022/11/30 05:08:26;;;;;;;30.20;25.73;;;9.50;99.90;;;;;;2075666;28;20689;-72
2022/11/30 05:09:27;;;;;;;29.30;25.95;;;9.50;99.90;;;;;;2077312;28;20119;-72
2022/11/30 05:10:29;;;;;;;33.47;27.15;;;9.50;99.90;;;;;;2077203;28;20226;-71
2022/11/30 05:11:29;;;;;;;27.73;24.42;;;9.50;99.90;;;;;;2077400;28;20022;-72
2022/11/30 05:12:30;;;;;;;30.83;25.77;;;9.60;99.90;;;;;;2077118;28;20075;-72
2022/11/30 05:13:30;;;;;;;31.08;26.02;;;9.60;99.90;;;;;;2075772;28;20474;-71
2022/11/30 05:14:31;;;;;;;29.48;24.58;;;9.60;99.90;;;;;;2077870;28;20520;-72
2022/11/30 05:15:32;;;;;;;27.45;23.83;;;9.60;99.90;;;;;;2077839;28;20022;-72
2022/11/30 05:16:32;;;;;;;28.70;25.65;;;9.60;99.90;;;;;;2076323;28;20403;-72
2022/11/30 05:17:33;;;;;;;26.58;23.63;;;9.60;99.90;;;;;;2076544;28;20116;-71
2022/11/30 05:18:33;;;;;;;29.50;26.33;;;9.60;99.90;;;;;;2074575;28;20026;-72